sensor_id;sensor_type;location;lat;lon;timestamp;temperature;humidity
30288;DHT22;17103;48.316;11.558;2023-12-14T00:00:45;9.90;60.20
30288;DHT22;17103;48.316;11.558;2023-12-14T00:03:10;9.90;60.40
30288;DHT22;17103;48.316;11.558;2023-12-14T00:05:36;9.90;60.60
30288;DHT22;17103;48.316;11.558;2023-12-14T00:08:02;9.90;60.30
30288;DHT22;17103;48.316;11.558;2023-12-14T00:10:29;10.00;59.30
30288;DHT22;17103;48.316;11.558;2023-12-14T00:12:54;10.00;59.50
30288;DHT22;17103;48.316;11.558;2023-12-14T00:15:20;10.00;59.40
30288;DHT22;17103;48.316;11.558;2023-12-14T00:17:46;10.00;59.60
30288;DHT22;17103;48.316;11.558;2023-12-14T00:20:11;10.00;59.50
30288;DHT22;17103;48.316;11.558;2023-12-14T00:22:37;10.10;59.30
30288;DHT22;17103;48.316;11.558;2023-12-14T00:25:03;10.10;59.10
30288;DHT22;17103;48.316;11.558;2023-12-14T00:27:29;10.10;59.10
30288;DHT22;17103;48.316;11.558;2023-12-14T00:29:54;10.10;59.20
30288;DHT22;17103;48.316;11.558;2023-12-14T00:32:20;10.10;58.90
30288;DHT22;17103;48.316;11.558;2023-12-14T00:34:45;10.10;58.80
30288;DHT22;17103;48.316;11.558;2023-12-14T00:37:11;10.20;59.00
30288;DHT22;17103;48.316;11.558;2023-12-14T00:39:37;10.20;59.00
30288;DHT22;17103;48.316;11.558;2023-12-14T00:42:03;10.20;59.00
30288;DHT22;17103;48.316;11.558;2023-12-14T00:44:29;10.20;58.90
30288;DHT22;17103;48.316;11.558;2023-12-14T00:46:54;10.20;58.70
30288;DHT22;17103;48.316;11.558;2023-12-14T00:49:20;10.20;58.80
30288;DHT22;17103;48.316;11.558;2023-12-14T00:51:46;10.20;58.70
30288;DHT22;17103;48.316;11.558;2023-12-14T00:54:12;10.20;58.90
30288;DHT22;17103;48.316;11.558;2023-12-14T00:56:37;10.10;58.70
30288;DHT22;17103;48.316;11.558;2023-12-14T00:59:03;10.10;58.80
30288;DHT22;17103;48.316;11.558;2023-12-14T01:01:28;10.10;58.80
30288;DHT22;17103;48.316;11.558;2023-12-14T01:03:54;10.10;58.90
30288;DHT22;17103;48.316;11.558;2023-12-14T01:06:20;10.00;59.10
30288;DHT22;17103;48.316;11.558;2023-12-14T01:08:45;10.00;59.20
30288;DHT22;17103;48.316;11.558;2023-12-14T01:11:11;10.00;59.30
30288;DHT22;17103;48.316;11.558;2023-12-14T01:13:37;10.00;59.50
30288;DHT22;17103;48.316;11.558;2023-12-14T01:16:02;10.00;59.50
30288;DHT22;17103;48.316;11.558;2023-12-14T01:18:28;10.00;59.50
30288;DHT22;17103;48.316;11.558;2023-12-14T01:20:53;10.00;59.90
30288;DHT22;17103;48.316;11.558;2023-12-14T01:23:19;10.00;59.80
30288;DHT22;17103;48.316;11.558;2023-12-14T01:25:44;10.00;59.70
30288;DHT22;17103;48.316;11.558;2023-12-14T01:28:10;10.00;59.70
30288;DHT22;17103;48.316;11.558;2023-12-14T01:30:36;10.10;59.60
30288;DHT22;17103;48.316;11.558;2023-12-14T01:33:01;10.10;59.60
30288;DHT22;17103;48.316;11.558;2023-12-14T01:35:27;10.10;59.70
30288;DHT22;17103;48.316;11.558;2023-12-14T01:37:55;10.10;59.40
30288;DHT22;17103;48.316;11.558;2023-12-14T01:40:20;10.10;59.30
30288;DHT22;17103;48.316;11.558;2023-12-14T01:42:46;10.10;59.20
30288;DHT22;17103;48.316;11.558;2023-12-14T01:45:11;10.10;59.10
30288;DHT22;17103;48.316;11.558;2023-12-14T01:47:40;10.10;59.10
30288;DHT22;17103;48.316;11.558;2023-12-14T01:50:06;10.10;59.00
30288;DHT22;17103;48.316;11.558;2023-12-14T01:52:31;10.00;58.70
30288;DHT22;17103;48.316;11.558;2023-12-14T01:54:57;10.00;58.70
30288;DHT22;17103;48.316;11.558;2023-12-14T01:57:24;10.00;58.90
30288;DHT22;17103;48.316;11.558;2023-12-14T01:59:50;10.00;58.90
30288;DHT22;17103;48.316;11.558;2023-12-14T02:02:15;10.00;59.10
30288;DHT22;17103;48.316;11.558;2023-12-14T02:04:41;10.00;59.40
30288;DHT22;17103;48.316;11.558;2023-12-14T02:07:06;10.10;59.40
30288;DHT22;17103;48.316;11.558;2023-12-14T02:09:32;10.10;59.00
30288;DHT22;17103;48.316;11.558;2023-12-14T02:11:57;10.10;58.80
30288;DHT22;17103;48.316;11.558;2023-12-14T02:14:23;10.20;58.80
30288;DHT22;17103;48.316;11.558;2023-12-14T02:16:49;10.20;58.50
30288;DHT22;17103;48.316;11.558;2023-12-14T02:19:14;10.20;58.10
30288;DHT22;17103;48.316;11.558;2023-12-14T02:21:40;10.20;57.80
30288;DHT22;17103;48.316;11.558;2023-12-14T02:24:05;10.20;57.70
30288;DHT22;17103;48.316;11.558;2023-12-14T02:26:31;10.10;57.60
30288;DHT22;17103;48.316;11.558;2023-12-14T02:28:56;10.10;57.50
30288;DHT22;17103;48.316;11.558;2023-12-14T02:31:22;10.20;57.70
30288;DHT22;17103;48.316;11.558;2023-12-14T02:33:48;10.10;57.60
30288;DHT22;17103;48.316;11.558;2023-12-14T02:36:13;10.10;57.70
30288;DHT22;17103;48.316;11.558;2023-12-14T02:38:39;10.10;57.80
30288;DHT22;17103;48.316;11.558;2023-12-14T02:41:04;10.10;57.80
30288;DHT22;17103;48.316;11.558;2023-12-14T02:43:30;10.00;57.60
30288;DHT22;17103;48.316;11.558;2023-12-14T02:45:55;10.00;57.60
30288;DHT22;17103;48.316;11.558;2023-12-14T02:48:28;10.00;57.70
30288;DHT22;17103;48.316;11.558;2023-12-14T02:50:54;9.90;58.60
30288;DHT22;17103;48.316;11.558;2023-12-14T02:53:20;9.90;58.90
30288;DHT22;17103;48.316;11.558;2023-12-14T02:55:45;9.90;59.30
30288;DHT22;17103;48.316;11.558;2023-12-14T02:58:11;9.80;59.50
30288;DHT22;17103;48.316;11.558;2023-12-14T03:00:36;9.80;59.60
30288;DHT22;17103;48.316;11.558;2023-12-14T03:03:02;9.80;60.00
30288;DHT22;17103;48.316;11.558;2023-12-14T03:05:28;9.80;60.50
30288;DHT22;17103;48.316;11.558;2023-12-14T03:07:54;9.70;60.40
30288;DHT22;17103;48.316;11.558;2023-12-14T03:10:20;9.70;60.50
30288;DHT22;17103;48.316;11.558;2023-12-14T03:12:45;9.70;60.60
30288;DHT22;17103;48.316;11.558;2023-12-14T03:15:11;9.70;61.00
30288;DHT22;17103;48.316;11.558;2023-12-14T03:17:36;9.60;60.90
30288;DHT22;17103;48.316;11.558;2023-12-14T03:20:02;9.60;61.10
30288;DHT22;17103;48.316;11.558;2023-12-14T03:22:30;9.60;61.10
30288;DHT22;17103;48.316;11.558;2023-12-14T03:24:55;9.60;61.50
30288;DHT22;17103;48.316;11.558;2023-12-14T03:27:21;9.50;61.70
30288;DHT22;17103;48.316;11.558;2023-12-14T03:29:48;9.50;61.70
30288;DHT22;17103;48.316;11.558;2023-12-14T03:32:14;9.50;61.80
30288;DHT22;17103;48.316;11.558;2023-12-14T03:34:39;9.50;62.40
30288;DHT22;17103;48.316;11.558;2023-12-14T03:37:06;9.50;62.30
30288;DHT22;17103;48.316;11.558;2023-12-14T03:39:31;9.50;62.50
30288;DHT22;17103;48.316;11.558;2023-12-14T03:41:57;9.40;62.60
30288;DHT22;17103;48.316;11.558;2023-12-14T03:44:22;9.40;62.50
30288;DHT22;17103;48.316;11.558;2023-12-14T03:46:49;9.40;62.60
30288;DHT22;17103;48.316;11.558;2023-12-14T03:49:15;9.40;62.50
30288;DHT22;17103;48.316;11.558;2023-12-14T03:51:40;9.40;62.80
30288;DHT22;17103;48.316;11.558;2023-12-14T03:54:06;9.50;62.90
30288;DHT22;17103;48.316;11.558;2023-12-14T03:56:32;9.40;62.90
30288;DHT22;17103;48.316;11.558;2023-12-14T03:58:57;9.40;62.70
30288;DHT22;17103;48.316;11.558;2023-12-14T04:01:23;9.40;62.90
30288;DHT22;17103;48.316;11.558;2023-12-14T04:03:48;9.40;62.80
30288;DHT22;17103;48.316;11.558;2023-12-14T04:06:14;9.40;62.90
30288;DHT22;17103;48.316;11.558;2023-12-14T04:08:40;9.40;62.80
30288;DHT22;17103;48.316;11.558;2023-12-14T04:11:06;9.40;63.50
30288;DHT22;17103;48.316;11.558;2023-12-14T04:13:32;9.40;62.60
30288;DHT22;17103;48.316;11.558;2023-12-14T04:15:57;9.40;62.50
30288;DHT22;17103;48.316;11.558;2023-12-14T04:18:23;9.40;62.60
30288;DHT22;17103;48.316;11.558;2023-12-14T04:20:49;9.40;62.70
30288;DHT22;17103;48.316;11.558;2023-12-14T04:23:14;9.40;62.70
30288;DHT22;17103;48.316;11.558;2023-12-14T04:26:26;9.40;62.60
30288;DHT22;17103;48.316;11.558;2023-12-14T04:28:34;9.30;62.70
30288;DHT22;17103;48.316;11.558;2023-12-14T04:30:59;9.40;62.90
30288;DHT22;17103;48.316;11.558;2023-12-14T04:33:25;9.40;62.70
30288;DHT22;17103;48.316;11.558;2023-12-14T04:35:50;9.40;62.80
30288;DHT22;17103;48.316;11.558;2023-12-14T04:38:16;9.40;62.80
30288;DHT22;17103;48.316;11.558;2023-12-14T04:40:41;9.40;62.90
30288;DHT22;17103;48.316;11.558;2023-12-14T04:43:07;9.40;62.90
30288;DHT22;17103;48.316;11.558;2023-12-14T04:45:33;9.40;62.70
30288;DHT22;17103;48.316;11.558;2023-12-14T04:47:58;9.40;62.80
30288;DHT22;17103;48.316;11.558;2023-12-14T04:50:24;9.40;63.00
30288;DHT22;17103;48.316;11.558;2023-12-14T04:52:49;9.40;62.90
30288;DHT22;17103;48.316;11.558;2023-12-14T04:55:15;9.40;62.80
30288;DHT22;17103;48.316;11.558;2023-12-14T04:57:40;9.40;62.70
30288;DHT22;17103;48.316;11.558;2023-12-14T05:00:06;9.40;62.40
30288;DHT22;17103;48.316;11.558;2023-12-14T05:02:33;9.40;62.30
30288;DHT22;17103;48.316;11.558;2023-12-14T05:04:58;9.40;62.40
30288;DHT22;17103;48.316;11.558;2023-12-14T05:07:24;9.40;62.50
30288;DHT22;17103;48.316;11.558;2023-12-14T05:09:49;9.40;62.80
30288;DHT22;17103;48.316;11.558;2023-12-14T05:12:15;9.40;62.70
30288;DHT22;17103;48.316;11.558;2023-12-14T05:14:41;9.50;62.90
30288;DHT22;17103;48.316;11.558;2023-12-14T05:17:06;9.50;62.70
30288;DHT22;17103;48.316;11.558;2023-12-14T05:19:32;9.50;62.70
30288;DHT22;17103;48.316;11.558;2023-12-14T05:21:59;9.60;62.70
30288;DHT22;17103;48.316;11.558;2023-12-14T05:24:25;9.60;62.40
30288;DHT22;17103;48.316;11.558;2023-12-14T05:26:50;9.60;62.10
30288;DHT22;17103;48.316;11.558;2023-12-14T05:29:16;9.70;62.00
30288;DHT22;17103;48.316;11.558;2023-12-14T05:31:42;9.70;61.90
30288;DHT22;17103;48.316;11.558;2023-12-14T05:34:08;9.70;61.50
30288;DHT22;17103;48.316;11.558;2023-12-14T05:36:33;9.70;60.80
30288;DHT22;17103;48.316;11.558;2023-12-14T05:38:59;9.70;60.70
30288;DHT22;17103;48.316;11.558;2023-12-14T05:41:24;9.70;60.70
30288;DHT22;17103;48.316;11.558;2023-12-14T05:43:50;9.70;60.70
30288;DHT22;17103;48.316;11.558;2023-12-14T05:46:24;9.70;60.60
30288;DHT22;17103;48.316;11.558;2023-12-14T05:48:50;9.70;60.30
30288;DHT22;17103;48.316;11.558;2023-12-14T05:51:28;9.70;60.30
30288;DHT22;17103;48.316;11.558;2023-12-14T05:53:54;9.80;60.60
30288;DHT22;17103;48.316;11.558;2023-12-14T05:56:19;9.80;60.30
30288;DHT22;17103;48.316;11.558;2023-12-14T05:58:45;9.80;60.30
30288;DHT22;17103;48.316;11.558;2023-12-14T06:01:10;9.80;60.60
30288;DHT22;17103;48.316;11.558;2023-12-14T06:03:36;9.80;60.40
30288;DHT22;17103;48.316;11.558;2023-12-14T06:06:01;9.80;59.90
30288;DHT22;17103;48.316;11.558;2023-12-14T06:08:27;9.80;59.90
30288;DHT22;17103;48.316;11.558;2023-12-14T06:10:52;9.80;59.90
30288;DHT22;17103;48.316;11.558;2023-12-14T06:13:18;9.90;60.00
30288;DHT22;17103;48.316;11.558;2023-12-14T06:15:43;9.90;60.40
30288;DHT22;17103;48.316;11.558;2023-12-14T06:18:09;8.70;59.30
30288;DHT22;17103;48.316;11.558;2023-12-14T06:20:34;9.90;59.70
30288;DHT22;17103;48.316;11.558;2023-12-14T06:23:00;9.90;59.60
30288;DHT22;17103;48.316;11.558;2023-12-14T06:25:26;9.90;59.60
30288;DHT22;17103;48.316;11.558;2023-12-14T06:27:51;9.90;59.60
30288;DHT22;17103;48.316;11.558;2023-12-14T06:30:17;9.90;59.80
30288;DHT22;17103;48.316;11.558;2023-12-14T06:32:42;9.90;59.70
30288;DHT22;17103;48.316;11.558;2023-12-14T06:35:08;9.90;59.40
30288;DHT22;17103;48.316;11.558;2023-12-14T06:37:33;9.90;59.10
30288;DHT22;17103;48.316;11.558;2023-12-14T06:39:59;9.80;58.80
30288;DHT22;17103;48.316;11.558;2023-12-14T06:42:26;9.80;58.90
30288;DHT22;17103;48.316;11.558;2023-12-14T06:44:53;9.80;58.90
30288;DHT22;17103;48.316;11.558;2023-12-14T06:47:18;9.80;58.90
30288;DHT22;17103;48.316;11.558;2023-12-14T06:49:44;9.80;58.90
30288;DHT22;17103;48.316;11.558;2023-12-14T06:52:10;9.80;58.80
30288;DHT22;17103;48.316;11.558;2023-12-14T06:54:35;9.70;58.70
30288;DHT22;17103;48.316;11.558;2023-12-14T06:57:01;9.70;58.70
30288;DHT22;17103;48.316;11.558;2023-12-14T06:59:26;9.70;58.70
30288;DHT22;17103;48.316;11.558;2023-12-14T07:01:52;9.60;58.70
30288;DHT22;17103;48.316;11.558;2023-12-14T07:04:18;9.60;58.80
30288;DHT22;17103;48.316;11.558;2023-12-14T07:06:50;9.60;58.90
30288;DHT22;17103;48.316;11.558;2023-12-14T07:09:16;9.50;59.00
30288;DHT22;17103;48.316;11.558;2023-12-14T07:11:43;9.50;59.00
30288;DHT22;17103;48.316;11.558;2023-12-14T07:14:08;9.50;59.10
30288;DHT22;17103;48.316;11.558;2023-12-14T07:16:34;9.40;59.20
30288;DHT22;17103;48.316;11.558;2023-12-14T07:18:59;9.40;59.30
30288;DHT22;17103;48.316;11.558;2023-12-14T07:21:25;9.40;59.30
30288;DHT22;17103;48.316;11.558;2023-12-14T07:23:51;9.30;59.60
30288;DHT22;17103;48.316;11.558;2023-12-14T07:26:17;9.30;59.80
30288;DHT22;17103;48.316;11.558;2023-12-14T07:28:43;9.30;59.90
30288;DHT22;17103;48.316;11.558;2023-12-14T07:31:08;9.30;60.00
30288;DHT22;17103;48.316;11.558;2023-12-14T07:33:34;9.20;60.00
30288;DHT22;17103;48.316;11.558;2023-12-14T07:36:01;9.20;60.40
30288;DHT22;17103;48.316;11.558;2023-12-14T07:38:26;9.20;60.50
30288;DHT22;17103;48.316;11.558;2023-12-14T07:40:52;9.20;60.70
30288;DHT22;17103;48.316;11.558;2023-12-14T07:43:18;9.20;60.80
30288;DHT22;17103;48.316;11.558;2023-12-14T07:45:43;9.20;61.10
30288;DHT22;17103;48.316;11.558;2023-12-14T07:48:09;9.20;61.30
30288;DHT22;17103;48.316;11.558;2023-12-14T07:50:35;9.20;61.60
30288;DHT22;17103;48.316;11.558;2023-12-14T07:53:00;9.10;61.70
30288;DHT22;17103;48.316;11.558;2023-12-14T07:55:26;9.10;62.00
30288;DHT22;17103;48.316;11.558;2023-12-14T07:57:51;9.10;61.90
30288;DHT22;17103;48.316;11.558;2023-12-14T08:00:17;9.10;62.20
30288;DHT22;17103;48.316;11.558;2023-12-14T08:02:43;9.10;62.30
30288;DHT22;17103;48.316;11.558;2023-12-14T08:05:09;9.20;62.40
30288;DHT22;17103;48.316;11.558;2023-12-14T08:07:35;9.20;63.30
30288;DHT22;17103;48.316;11.558;2023-12-14T08:10:00;9.20;62.40
30288;DHT22;17103;48.316;11.558;2023-12-14T08:12:27;9.20;62.70
30288;DHT22;17103;48.316;11.558;2023-12-14T08:14:52;9.20;62.70
30288;DHT22;17103;48.316;11.558;2023-12-14T08:17:18;9.20;62.80
30288;DHT22;17103;48.316;11.558;2023-12-14T08:19:44;9.20;62.50
30288;DHT22;17103;48.316;11.558;2023-12-14T08:22:10;9.20;62.40
30288;DHT22;17103;48.316;11.558;2023-12-14T08:24:43;9.20;62.60
30288;DHT22;17103;48.316;11.558;2023-12-14T08:27:09;9.20;62.70
30288;DHT22;17103;48.316;11.558;2023-12-14T08:29:34;9.30;62.70
30288;DHT22;17103;48.316;11.558;2023-12-14T08:32:00;9.30;63.00
30288;DHT22;17103;48.316;11.558;2023-12-14T08:34:26;9.30;63.00
30288;DHT22;17103;48.316;11.558;2023-12-14T08:36:52;9.30;63.00
30288;DHT22;17103;48.316;11.558;2023-12-14T08:39:18;9.30;63.30
30288;DHT22;17103;48.316;11.558;2023-12-14T08:41:45;9.30;63.20
30288;DHT22;17103;48.316;11.558;2023-12-14T08:44:10;9.30;62.90
30288;DHT22;17103;48.316;11.558;2023-12-14T08:46:42;9.30;63.00
30288;DHT22;17103;48.316;11.558;2023-12-14T08:49:08;9.40;63.10
30288;DHT22;17103;48.316;11.558;2023-12-14T08:51:34;9.40;63.00
30288;DHT22;17103;48.316;11.558;2023-12-14T08:53:59;9.40;63.10
30288;DHT22;17103;48.316;11.558;2023-12-14T08:56:25;9.40;63.00
30288;DHT22;17103;48.316;11.558;2023-12-14T08:58:50;9.40;63.10
30288;DHT22;17103;48.316;11.558;2023-12-14T09:01:19;9.50;63.20
30288;DHT22;17103;48.316;11.558;2023-12-14T09:03:46;9.50;63.20
30288;DHT22;17103;48.316;11.558;2023-12-14T09:06:12;9.50;62.90
30288;DHT22;17103;48.316;11.558;2023-12-14T09:08:37;9.50;63.40
30288;DHT22;17103;48.316;11.558;2023-12-14T09:11:03;9.50;62.90
30288;DHT22;17103;48.316;11.558;2023-12-14T09:13:29;9.50;62.80
30288;DHT22;17103;48.316;11.558;2023-12-14T09:15:54;9.50;62.70
30288;DHT22;17103;48.316;11.558;2023-12-14T09:18:21;9.50;62.60
30288;DHT22;17103;48.316;11.558;2023-12-14T09:20:48;9.50;62.60
30288;DHT22;17103;48.316;11.558;2023-12-14T09:23:15;9.50;62.60
30288;DHT22;17103;48.316;11.558;2023-12-14T09:25:41;9.50;63.30
30288;DHT22;17103;48.316;11.558;2023-12-14T09:28:06;9.50;62.80
30288;DHT22;17103;48.316;11.558;2023-12-14T09:30:32;9.50;62.60
30288;DHT22;17103;48.316;11.558;2023-12-14T09:32:58;9.50;62.70
30288;DHT22;17103;48.316;11.558;2023-12-14T09:35:24;9.50;62.60
30288;DHT22;17103;48.316;11.558;2023-12-14T09:37:49;9.50;62.60
30288;DHT22;17103;48.316;11.558;2023-12-14T09:40:15;9.60;62.70
30288;DHT22;17103;48.316;11.558;2023-12-14T09:42:42;9.60;62.70
30288;DHT22;17103;48.316;11.558;2023-12-14T09:45:07;9.60;62.80
30288;DHT22;17103;48.316;11.558;2023-12-14T09:47:34;9.60;62.70
30288;DHT22;17103;48.316;11.558;2023-12-14T09:50:00;9.70;63.20
30288;DHT22;17103;48.316;11.558;2023-12-14T09:52:26;9.60;62.60
30288;DHT22;17103;48.316;11.558;2023-12-14T09:54:51;9.70;62.60
30288;DHT22;17103;48.316;11.558;2023-12-14T09:57:20;9.70;62.20
30288;DHT22;17103;48.316;11.558;2023-12-14T09:59:52;9.60;62.20
30288;DHT22;17103;48.316;11.558;2023-12-14T10:02:18;9.60;62.40
30288;DHT22;17103;48.316;11.558;2023-12-14T10:04:44;9.60;62.70
30288;DHT22;17103;48.316;11.558;2023-12-14T10:07:09;9.60;63.10
30288;DHT22;17103;48.316;11.558;2023-12-14T10:09:36;9.60;63.30
30288;DHT22;17103;48.316;11.558;2023-12-14T10:12:03;9.60;63.40
30288;DHT22;17103;48.316;11.558;2023-12-14T10:14:29;9.60;63.50
30288;DHT22;17103;48.316;11.558;2023-12-14T10:16:55;9.70;63.80
30288;DHT22;17103;48.316;11.558;2023-12-14T10:19:21;9.70;63.90
30288;DHT22;17103;48.316;11.558;2023-12-14T10:21:50;9.70;64.10
30288;DHT22;17103;48.316;11.558;2023-12-14T10:24:16;9.70;64.80
30288;DHT22;17103;48.316;11.558;2023-12-14T10:26:45;9.80;64.70
30288;DHT22;17103;48.316;11.558;2023-12-14T10:29:11;9.80;64.90
30288;DHT22;17103;48.316;11.558;2023-12-14T10:31:37;9.90;65.30
30288;DHT22;17103;48.316;11.558;2023-12-14T10:34:03;9.90;64.30
30288;DHT22;17103;48.316;11.558;2023-12-14T10:36:29;10.00;62.70
30288;DHT22;17103;48.316;11.558;2023-12-14T10:38:57;10.10;62.20
30288;DHT22;17103;48.316;11.558;2023-12-14T10:41:23;10.10;61.40
30288;DHT22;17103;48.316;11.558;2023-12-14T10:43:48;10.10;61.30
30288;DHT22;17103;48.316;11.558;2023-12-14T10:46:15;10.20;61.30
30288;DHT22;17103;48.316;11.558;2023-12-14T10:48:42;10.30;61.10
30288;DHT22;17103;48.316;11.558;2023-12-14T10:51:09;10.30;60.20
30288;DHT22;17103;48.316;11.558;2023-12-14T10:53:36;10.30;59.30
30288;DHT22;17103;48.316;11.558;2023-12-14T10:56:03;10.30;59.30
30288;DHT22;17103;48.316;11.558;2023-12-14T11:01:13;10.30;58.70
30288;DHT22;17103;48.316;11.558;2023-12-14T11:03:39;10.30;58.70
30288;DHT22;17103;48.316;11.558;2023-12-14T11:06:15;10.30;59.10
30288;DHT22;17103;48.316;11.558;2023-12-14T11:08:45;10.30;59.00
30288;DHT22;17103;48.316;11.558;2023-12-14T11:11:10;10.30;59.20
30288;DHT22;17103;48.316;11.558;2023-12-14T11:13:39;10.30;59.40
30288;DHT22;17103;48.316;11.558;2023-12-14T11:16:05;10.40;59.60
30288;DHT22;17103;48.316;11.558;2023-12-14T11:18:31;10.40;59.20
30288;DHT22;17103;48.316;11.558;2023-12-14T11:20:57;10.40;58.10
30288;DHT22;17103;48.316;11.558;2023-12-14T11:25:53;10.40;57.90
30288;DHT22;17103;48.316;11.558;2023-12-14T11:28:19;10.40;57.70
30288;DHT22;17103;48.316;11.558;2023-12-14T11:30:46;10.30;57.40
30288;DHT22;17103;48.316;11.558;2023-12-14T11:33:12;10.30;57.80
30288;DHT22;17103;48.316;11.558;2023-12-14T11:35:38;10.30;57.40
30288;DHT22;17103;48.316;11.558;2023-12-14T11:38:03;10.30;57.20
30288;DHT22;17103;48.316;11.558;2023-12-14T11:40:36;10.20;57.30
30288;DHT22;17103;48.316;11.558;2023-12-14T11:43:02;10.20;57.20
30288;DHT22;17103;48.316;11.558;2023-12-14T11:45:32;10.20;57.30
30288;DHT22;17103;48.316;11.558;2023-12-14T11:47:57;10.20;57.60
30288;DHT22;17103;48.316;11.558;2023-12-14T11:50:23;10.20;57.90
30288;DHT22;17103;48.316;11.558;2023-12-14T11:52:48;10.30;58.00
30288;DHT22;17103;48.316;11.558;2023-12-14T11:55:14;10.30;58.10
30288;DHT22;17103;48.316;11.558;2023-12-14T11:57:45;10.30;58.10
30288;DHT22;17103;48.316;11.558;2023-12-14T12:00:11;10.30;58.00
30288;DHT22;17103;48.316;11.558;2023-12-14T12:02:37;10.30;57.80
30288;DHT22;17103;48.316;11.558;2023-12-14T12:05:03;10.30;57.60
30288;DHT22;17103;48.316;11.558;2023-12-14T12:07:28;10.40;57.50
30288;DHT22;17103;48.316;11.558;2023-12-14T12:09:54;10.40;57.60
30288;DHT22;17103;48.316;11.558;2023-12-14T12:12:20;10.40;57.80
30288;DHT22;17103;48.316;11.558;2023-12-14T12:14:46;10.50;57.90
30288;DHT22;17103;48.316;11.558;2023-12-14T12:17:11;10.50;57.60
30288;DHT22;17103;48.316;11.558;2023-12-14T12:19:37;10.90;58.10
30288;DHT22;17103;48.316;11.558;2023-12-14T12:22:03;10.60;57.80
30288;DHT22;17103;48.316;11.558;2023-12-14T12:24:29;10.50;56.60
30288;DHT22;17103;48.316;11.558;2023-12-14T12:26:54;10.60;57.10
30288;DHT22;17103;48.316;11.558;2023-12-14T12:29:21;10.60;56.80
30288;DHT22;17103;48.316;11.558;2023-12-14T12:31:46;10.60;56.20
30288;DHT22;17103;48.316;11.558;2023-12-14T12:34:12;10.60;56.30
30288;DHT22;17103;48.316;11.558;2023-12-14T12:36:37;10.60;56.40
30288;DHT22;17103;48.316;11.558;2023-12-14T12:39:03;10.60;56.20
30288;DHT22;17103;48.316;11.558;2023-12-14T12:41:31;10.60;55.70
30288;DHT22;17103;48.316;11.558;2023-12-14T12:43:57;10.60;55.90
30288;DHT22;17103;48.316;11.558;2023-12-14T12:46:23;10.60;55.90
30288;DHT22;17103;48.316;11.558;2023-12-14T12:48:48;10.60;56.60
30288;DHT22;17103;48.316;11.558;2023-12-14T12:51:14;10.50;55.80
30288;DHT22;17103;48.316;11.558;2023-12-14T12:53:40;10.50;56.20
30288;DHT22;17103;48.316;11.558;2023-12-14T12:56:05;10.50;56.00
30288;DHT22;17103;48.316;11.558;2023-12-14T12:58:31;10.50;56.10
30288;DHT22;17103;48.316;11.558;2023-12-14T13:00:57;10.50;56.10
30288;DHT22;17103;48.316;11.558;2023-12-14T13:03:23;10.50;56.40
30288;DHT22;17103;48.316;11.558;2023-12-14T13:05:48;10.50;56.40
30288;DHT22;17103;48.316;11.558;2023-12-14T13:08:14;10.50;56.40
30288;DHT22;17103;48.316;11.558;2023-12-14T13:10:40;10.50;56.60
30288;DHT22;17103;48.316;11.558;2023-12-14T13:13:05;10.50;56.80
30288;DHT22;17103;48.316;11.558;2023-12-14T13:15:32;10.60;57.50
30288;DHT22;17103;48.316;11.558;2023-12-14T13:17:58;10.60;57.00
30288;DHT22;17103;48.316;11.558;2023-12-14T13:20:24;10.60;57.00
30288;DHT22;17103;48.316;11.558;2023-12-14T13:22:49;10.60;56.90
30288;DHT22;17103;48.316;11.558;2023-12-14T13:25:15;10.60;57.20
30288;DHT22;17103;48.316;11.558;2023-12-14T13:27:41;10.60;57.40
30288;DHT22;17103;48.316;11.558;2023-12-14T13:30:08;10.60;57.50
30288;DHT22;17103;48.316;11.558;2023-12-14T13:32:33;10.70;57.40
30288;DHT22;17103;48.316;11.558;2023-12-14T13:34:59;10.70;57.50
30288;DHT22;17103;48.316;11.558;2023-12-14T13:37:25;10.60;56.50
30288;DHT22;17103;48.316;11.558;2023-12-14T13:39:50;10.70;56.90
30288;DHT22;17103;48.316;11.558;2023-12-14T13:42:18;10.70;57.00
30288;DHT22;17103;48.316;11.558;2023-12-14T13:44:44;10.70;56.80
30288;DHT22;17103;48.316;11.558;2023-12-14T13:47:10;10.70;56.50
30288;DHT22;17103;48.316;11.558;2023-12-14T13:49:36;10.60;56.70
30288;DHT22;17103;48.316;11.558;2023-12-14T13:52:01;10.60;56.80
30288;DHT22;17103;48.316;11.558;2023-12-14T13:54:27;10.60;57.00
30288;DHT22;17103;48.316;11.558;2023-12-14T13:56:52;10.60;57.20
30288;DHT22;17103;48.316;11.558;2023-12-14T13:59:18;10.60;57.40
30288;DHT22;17103;48.316;11.558;2023-12-14T14:01:44;10.70;57.50
30288;DHT22;17103;48.316;11.558;2023-12-14T14:04:10;10.70;57.40
30288;DHT22;17103;48.316;11.558;2023-12-14T14:06:37;10.70;57.40
30288;DHT22;17103;48.316;11.558;2023-12-14T14:09:03;10.70;57.40
30288;DHT22;17103;48.316;11.558;2023-12-14T14:11:30;10.70;57.50
30288;DHT22;17103;48.316;11.558;2023-12-14T14:13:56;10.70;57.70
30288;DHT22;17103;48.316;11.558;2023-12-14T14:16:21;10.70;57.30
30288;DHT22;17103;48.316;11.558;2023-12-14T14:18:48;10.70;57.40
30288;DHT22;17103;48.316;11.558;2023-12-14T14:21:14;10.70;57.30
30288;DHT22;17103;48.316;11.558;2023-12-14T14:23:39;10.80;57.50
30288;DHT22;17103;48.316;11.558;2023-12-14T14:26:05;10.80;57.20
30288;DHT22;17103;48.316;11.558;2023-12-14T14:28:32;10.80;57.10
30288;DHT22;17103;48.316;11.558;2023-12-14T14:30:58;10.90;57.30
30288;DHT22;17103;48.316;11.558;2023-12-14T14:33:24;10.90;57.50
30288;DHT22;17103;48.316;11.558;2023-12-14T14:35:51;11.00;57.20
30288;DHT22;17103;48.316;11.558;2023-12-14T14:38:17;11.00;56.80
30288;DHT22;17103;48.316;11.558;2023-12-14T14:40:42;11.00;56.00
30288;DHT22;17103;48.316;11.558;2023-12-14T14:43:09;11.00;55.80
30288;DHT22;17103;48.316;11.558;2023-12-14T14:45:34;11.00;55.70
30288;DHT22;17103;48.316;11.558;2023-12-14T14:48:00;10.90;55.20
30288;DHT22;17103;48.316;11.558;2023-12-14T14:50:25;10.90;55.40
30288;DHT22;17103;48.316;11.558;2023-12-14T14:52:51;10.90;55.30
30288;DHT22;17103;48.316;11.558;2023-12-14T14:55:17;10.90;55.40
30288;DHT22;17103;48.316;11.558;2023-12-14T14:57:42;10.90;55.40
30288;DHT22;17103;48.316;11.558;2023-12-14T15:00:08;10.80;55.70
30288;DHT22;17103;48.316;11.558;2023-12-14T15:02:34;10.90;55.70
30288;DHT22;17103;48.316;11.558;2023-12-14T15:04:59;10.90;55.80
30288;DHT22;17103;48.316;11.558;2023-12-14T15:07:34;10.90;55.70
30288;DHT22;17103;48.316;11.558;2023-12-14T15:10:00;10.80;55.70
30288;DHT22;17103;48.316;11.558;2023-12-14T15:12:25;10.80;55.70
30288;DHT22;17103;48.316;11.558;2023-12-14T15:14:51;10.80;55.40
30288;DHT22;17103;48.316;11.558;2023-12-14T15:17:16;10.80;55.60
30288;DHT22;17103;48.316;11.558;2023-12-14T15:19:44;10.80;55.80